Time;durP1;ratioP1;P1;durP2;ratioP2;P2;SDS_P1;SDS_P2;PMS_P1;PMS_P2;Temp;Humidity;BMP_temperature;BMP_pressure;BME280_temperature;BME280_humidity;BME280_pressure;Samples;Min_cycle;Max_cycle;Signal;HPM_P1;HPM_P2
2023/10/25 00:00:27;;;;;;;8.63;3.63;;;11.30;89.00;;;;;;5001241;28;20436;-68
2023/10/25 00:02:53;;;;;;;3.93;2.37;;;11.30;89.00;;;;;;5009156;28;20472;-68
2023/10/25 00:05:18;;;;;;;5.33;3.10;;;11.30;89.00;;;;;;4998411;28;20181;-67
2023/10/25 00:07:44;;;;;;;4.30;2.90;;;11.30;89.30;;;;;;5002731;28;20282;-68
2023/10/25 00:10:10;;;;;;;6.23;2.90;;;11.30;89.30;;;;;;4998988;28;20182;-68
2023/10/25 00:12:36;;;;;;;4.57;3.13;;;11.20;89.50;;;;;;4999136;28;20225;-68
2023/10/25 00:15:03;;;;;;;4.83;3.20;;;11.20;89.60;;;;;;5006293;28;20425;-67
2023/10/25 00:17:29;;;;;;;5.63;3.20;;;11.10;89.60;;;;;;5003602;28;20529;-67
2023/10/25 00:19:54;;;;;;;4.23;3.20;;;11.10;89.70;;;;;;5003260;28;20417;-67
2023/10/25 00:22:20;;;;;;;3.53;2.40;;;11.10;89.70;;;;;;5002118;28;21048;-70
2023/10/25 00:24:45;;;;;;;5.17;2.90;;;11.10;89.70;;;;;;5000655;28;20190;-66
2023/10/25 00:27:11;;;;;;;5.70;3.30;;;11.10;89.90;;;;;;5001314;28;20217;-69
2023/10/25 00:29:36;;;;;;;5.47;3.97;;;11.10;89.90;;;;;;5003918;28;20231;-66
2023/10/25 00:32:04;;;;;;;3.90;3.00;;;11.10;89.90;;;;;;5002134;28;20292;-68
2023/10/25 00:34:30;;;;;;;4.17;3.37;;;11.20;89.90;;;;;;5003119;28;20186;-69
2023/10/25 00:36:55;;;;;;;5.93;3.70;;;11.20;89.70;;;;;;5005172;28;20953;-68
2023/10/25 00:39:21;;;;;;;5.07;3.60;;;11.10;89.70;;;;;;5001957;28;20214;-66
2023/10/25 00:41:46;;;;;;;4.73;3.80;;;11.10;89.70;;;;;;5003675;28;20295;-67
2023/10/25 00:44:12;;;;;;;4.83;3.70;;;11.00;89.90;;;;;;5001071;28;20186;-67
2023/10/25 00:46:38;;;;;;;5.53;3.37;;;11.00;89.90;;;;;;5007266;28;20214;-66
2023/10/25 00:49:06;;;;;;;7.83;4.57;;;11.00;90.00;;;;;;5007088;28;20347;-67
2023/10/25 00:51:31;;;;;;;8.87;4.90;;;11.00;90.10;;;;;;5002334;28;20428;-67
2023/10/25 00:54:00;;;;;;;6.80;4.50;;;11.00;90.10;;;;;;5004852;28;20426;-66
2023/10/25 00:56:27;;;;;;;7.30;4.37;;;10.90;90.10;;;;;;5001500;28;20290;-67
2023/10/25 00:58:55;;;;;;;6.40;4.30;;;10.90;90.20;;;;;;5007445;28;20663;-68
2023/10/25 01:01:23;;;;;;;5.90;3.23;;;10.90;90.20;;;;;;4998146;28;20564;-68
2023/10/25 01:03:49;;;;;;;5.40;3.93;;;11.00;90.30;;;;;;4999952;28;20422;-67
2023/10/25 01:06:18;;;;;;;5.10;3.83;;;11.00;90.30;;;;;;4998390;28;20466;-66
2023/10/25 01:08:44;;;;;;;6.30;3.90;;;11.10;90.20;;;;;;4998903;28;20197;-67
2023/10/25 01:11:10;;;;;;;6.10;4.47;;;11.10;90.20;;;;;;4997238;28;20433;-66
2023/10/25 01:13:35;;;;;;;7.20;4.40;;;11.10;90.20;;;;;;4999108;28;20225;-67
2023/10/25 01:16:01;;;;;;;7.50;3.53;;;11.10;90.00;;;;;;5003008;28;20472;-66
2023/10/25 01:18:27;;;;;;;7.00;4.60;;;11.10;90.00;;;;;;5001412;28;20269;-67
2023/10/25 01:20:52;;;;;;;6.60;4.30;;;11.00;90.00;;;;;;5000400;28;20337;-67
2023/10/25 01:23:19;;;;;;;9.40;5.00;;;11.00;89.90;;;;;;4998025;28;20206;-67
2023/10/25 01:25:44;;;;;;;8.20;4.30;;;11.00;89.90;;;;;;5002364;28;20623;-66
2023/10/25 01:28:11;;;;;;;6.53;4.50;;;10.90;89.70;;;;;;5000131;28;20487;-68
2023/10/25 01:30:37;;;;;;;7.60;5.20;;;10.80;89.70;;;;;;5005535;28;20677;-67
2023/10/25 01:33:02;;;;;;;7.30;4.90;;;10.80;90.00;;;;;;4999817;28;20422;-68
2023/10/25 01:35:28;;;;;;;6.60;4.37;;;10.90;90.10;;;;;;5005255;28;20209;-66
2023/10/25 01:37:54;;;;;;;9.37;6.20;;;10.80;90.10;;;;;;5000862;28;20179;-68
2023/10/25 01:40:20;;;;;;;9.07;6.27;;;10.80;90.10;;;;;;5007055;28;20187;-66
2023/10/25 01:42:46;;;;;;;8.10;5.67;;;10.80;90.10;;;;;;5007131;28;20535;-66
2023/10/25 01:45:12;;;;;;;9.63;5.70;;;10.80;90.20;;;;;;5003157;28;20213;-64
2023/10/25 01:47:40;;;;;;;10.67;5.70;;;10.80;90.20;;;;;;4997371;28;20182;-67
2023/10/25 01:50:07;;;;;;;10.00;5.70;;;10.80;90.30;;;;;;5003987;28;20464;-67
2023/10/25 01:52:33;;;;;;;10.60;6.50;;;10.80;90.20;;;;;;4992323;28;20542;-67
2023/10/25 01:54:59;;;;;;;10.80;6.10;;;10.80;90.20;;;;;;5004202;28;20464;-68
2023/10/25 01:57:24;;;;;;;7.87;5.80;;;10.70;90.20;;;;;;5010046;28;20255;-68
2023/10/25 01:59:50;;;;;;;8.00;5.30;;;10.70;90.20;;;;;;5008519;28;20186;-67
2023/10/25 02:02:16;;;;;;;11.07;5.67;;;10.60;90.20;;;;;;5003857;28;20217;-68
2023/10/25 02:04:42;;;;;;;7.83;5.30;;;10.70;90.30;;;;;;5002633;28;20333;-66
2023/10/25 02:07:07;;;;;;;10.93;6.90;;;10.70;90.40;;;;;;4999942;28;20539;-65
2023/10/25 02:09:33;;;;;;;8.07;5.40;;;10.60;90.40;;;;;;5005605;28;20344;-66
2023/10/25 02:11:59;;;;;;;8.27;5.17;;;10.60;90.50;;;;;;5000099;28;20190;-66
2023/10/25 02:14:24;;;;;;;6.87;4.63;;;10.60;90.60;;;;;;5005834;28;20317;-67
2023/10/25 02:16:50;;;;;;;6.53;4.70;;;10.70;90.50;;;;;;5007672;28;20210;-67
2023/10/25 02:19:16;;;;;;;10.07;5.57;;;10.70;90.40;;;;;;5009501;28;20634;-65
2023/10/25 02:21:42;;;;;;;7.73;4.20;;;10.70;90.30;;;;;;5012241;28;20206;-66
2023/10/25 02:24:10;;;;;;;6.80;4.43;;;10.80;90.20;;;;;;5023077;28;20424;-66
2023/10/25 02:26:36;;;;;;;5.73;3.70;;;10.80;90.10;;;;;;5006436;28;20225;-66
2023/10/25 02:29:02;;;;;;;5.33;3.80;;;10.80;89.90;;;;;;5009206;28;20431;-64
2023/10/25 02:31:28;;;;;;;7.00;4.43;;;10.80;89.70;;;;;;5005127;28;20189;-66
2023/10/25 02:33:53;;;;;;;6.30;4.87;;;10.80;89.70;;;;;;5000084;28;20277;-68
2023/10/25 02:36:19;;;;;;;6.20;4.20;;;10.80;89.70;;;;;;5003852;28;20551;-68
2023/10/25 02:38:48;;;;;;;5.20;4.13;;;10.90;89.90;;;;;;4998399;28;20210;-67
2023/10/25 02:41:14;;;;;;;7.70;4.93;;;11.00;89.70;;;;;;5004186;28;20205;-68
2023/10/25 02:43:40;;;;;;;6.40;4.10;;;11.00;89.50;;;;;;4998418;28;20437;-67
2023/10/25 02:46:08;;;;;;;8.33;4.63;;;10.90;89.30;;;;;;5010479;28;20463;-67
2023/10/25 02:48:37;;;;;;;6.93;4.70;;;10.80;89.20;;;;;;5000106;28;20190;-67
2023/10/25 02:51:03;;;;;;;6.13;4.13;;;10.90;89.20;;;;;;5007200;28;20944;-67
2023/10/25 02:53:29;;;;;;;6.20;4.33;;;10.80;88.70;;;;;;4998543;28;20926;-67
2023/10/25 02:56:03;;;;;;;8.30;4.83;;;10.80;88.70;;;;;;5003354;28;20467;-69
2023/10/25 02:58:29;;;;;;;7.43;4.20;;;10.70;88.70;;;;;;5009314;28;20423;-68
2023/10/25 03:00:56;;;;;;;5.97;4.80;;;10.70;88.90;;;;;;5006285;28;20516;-69
2023/10/25 03:03:22;;;;;;;5.27;3.73;;;10.70;89.00;;;;;;5004172;28;20251;-67
2023/10/25 03:05:48;;;;;;;9.13;4.50;;;10.80;89.20;;;;;;5004252;28;20535;-67
2023/10/25 03:08:14;;;;;;;8.00;5.53;;;10.80;89.30;;;;;;5003726;28;20515;-68
2023/10/25 03:10:39;;;;;;;8.23;5.60;;;10.80;89.30;;;;;;5005877;28;20301;-68
2023/10/25 03:13:05;;;;;;;11.00;4.80;;;10.80;89.20;;;;;;5003430;28;20327;-68
2023/10/25 03:15:30;;;;;;;5.73;3.70;;;10.70;89.20;;;;;;5004467;28;20297;-67
2023/10/25 03:17:56;;;;;;;6.10;3.93;;;10.60;89.20;;;;;;5004113;28;20211;-67
2023/10/25 03:20:22;;;;;;;5.03;3.80;;;10.60;89.30;;;;;;5006546;28;20191;-66
2023/10/25 03:22:48;;;;;;;6.77;4.33;;;10.60;89.30;;;;;;4999528;28;20990;-68
2023/10/25 03:25:13;;;;;;;8.13;3.93;;;10.50;89.30;;;;;;5000487;28;20181;-66
2023/10/25 03:27:39;;;;;;;8.57;4.43;;;10.50;89.60;;;;;;5002569;28;20279;-67
2023/10/25 03:30:05;;;;;;;6.50;4.37;;;10.50;89.70;;;;;;5002452;28;20645;-68
2023/10/25 03:32:31;;;;;;;6.50;3.87;;;10.60;89.90;;;;;;5004392;28;20233;-66
2023/10/25 03:34:56;;;;;;;7.23;4.00;;;10.60;89.90;;;;;;5000655;28;20429;-66
2023/10/25 03:37:22;;;;;;;6.40;4.17;;;10.60;89.70;;;;;;5008737;28;20279;-67
2023/10/25 03:39:48;;;;;;;6.20;3.97;;;10.60;89.60;;;;;;5001254;28;20332;-67
2023/10/25 03:42:14;;;;;;;5.10;3.10;;;10.40;89.20;;;;;;5002092;28;20217;-67
2023/10/25 03:44:39;;;;;;;7.10;4.60;;;10.40;89.20;;;;;;5005201;28;20438;-66
2023/10/25 03:47:05;;;;;;;5.17;3.47;;;10.30;89.50;;;;;;5007849;28;20267;-67
2023/10/25 03:49:31;;;;;;;7.57;4.57;;;10.30;89.50;;;;;;5000154;28;20564;-66
2023/10/25 03:51:56;;;;;;;6.13;4.37;;;10.20;89.50;;;;;;5005233;28;20541;-67
2023/10/25 03:54:22;;;;;;;6.17;3.67;;;10.30;89.60;;;;;;4999329;28;20197;-67
2023/10/25 03:56:48;;;;;;;6.77;4.67;;;10.20;89.50;;;;;;5000013;28;20217;-68
2023/10/25 03:59:15;;;;;;;6.60;4.83;;;10.10;89.60;;;;;;5002349;28;20186;-67
2023/10/25 04:01:41;;;;;;;7.67;4.23;;;10.10;89.70;;;;;;5003398;28;20595;-64
2023/10/25 04:04:07;;;;;;;8.33;5.50;;;10.10;89.70;;;;;;5002144;28;20424;-65
2023/10/25 04:06:33;;;;;;;7.23;4.30;;;10.00;89.90;;;;;;5003432;28;20560;-67
2023/10/25 04:08:58;;;;;;;7.83;4.60;;;10.00;90.00;;;;;;5003801;28;20522;-67
2023/10/25 04:11:24;;;;;;;9.27;4.50;;;10.00;90.10;;;;;;5009765;28;20187;-66
2023/10/25 04:13:50;;;;;;;6.83;4.20;;;10.00;90.10;;;;;;5009905;28;20247;-67
2023/10/25 04:16:15;;;;;;;10.27;5.80;;;10.10;90.20;;;;;;5003425;28;20342;-67
2023/10/25 04:18:41;;;;;;;6.63;4.77;;;10.10;90.20;;;;;;5000318;28;20292;-66
2023/10/25 04:21:13;;;;;;;8.60;4.63;;;10.00;90.20;;;;;;5000861;28;20317;-67
2023/10/25 04:23:39;;;;;;;7.77;4.97;;;10.10;90.30;;;;;;4998390;28;20190;-65
2023/10/25 04:26:07;;;;;;;6.97;4.67;;;10.00;90.30;;;;;;5004109;28;20485;-65
2023/10/25 04:28:34;;;;;;;9.87;5.80;;;10.00;90.20;;;;;;5003507;28;20781;-66
2023/10/25 04:31:00;;;;;;;7.97;4.97;;;9.90;90.30;;;;;;5001590;28;20434;-67
2023/10/25 04:33:26;;;;;;;8.73;4.77;;;10.00;90.30;;;;;;5002634;28;20539;-66
2023/10/25 04:35:51;;;;;;;8.47;4.73;;;10.00;90.30;;;;;;5004710;28;20250;-67
2023/10/25 04:38:17;;;;;;;8.40;6.30;;;9.90;90.30;;;;;;5009806;28;20516;-67
2023/10/25 04:40:43;;;;;;;5.70;4.50;;;9.90;90.20;;;;;;4998453;28;20182;-68
2023/10/25 04:43:08;;;;;;;9.80;5.73;;;9.80;90.20;;;;;;5005327;28;20225;-66
2023/10/25 04:45:35;;;;;;;9.30;6.20;;;9.90;90.30;;;;;;5000340;28;20363;-69
2023/10/25 04:48:00;;;;;;;8.87;5.27;;;9.80;90.30;;;;;;5007524;28;20186;-68
2023/10/25 04:50:26;;;;;;;7.20;4.97;;;9.90;90.30;;;;;;4999020;28;20430;-68
2023/10/25 04:52:52;;;;;;;8.47;5.90;;;9.90;90.30;;;;;;5004565;28;20280;-67
2023/10/25 04:55:18;;;;;;;8.40;5.47;;;9.80;90.20;;;;;;4998603;28;20422;-68
2023/10/25 04:57:43;;;;;;;9.20;5.67;;;9.80;90.20;;;;;;4999632;28;20186;-69
2023/10/25 05:00:09;;;;;;;7.47;5.57;;;9.80;90.20;;;;;;5003912;28;20460;-67
2023/10/25 05:02:38;;;;;;;11.40;6.63;;;9.80;90.10;;;;;;5007395;28;20251;-66
2023/10/25 05:05:06;;;;;;;8.67;6.20;;;9.70;90.00;;;;;;4998243;28;20471;-65
2023/10/25 05:07:32;;;;;;;8.97;5.70;;;9.60;90.00;;;;;;5015429;28;20465;-67
2023/10/25 05:09:58;;;;;;;9.10;5.50;;;9.70;90.20;;;;;;4995471;28;20508;-67
2023/10/25 05:12:34;;;;;;;8.97;6.10;;;9.70;90.10;;;;;;5006556;28;20914;-66
2023/10/25 05:15:01;;;;;;;9.27;5.17;;;9.70;90.10;;;;;;5001653;28;20182;-67
2023/10/25 05:17:27;;;;;;;9.37;5.70;;;9.70;90.10;;;;;;4999966;28;20434;-68
2023/10/25 05:19:53;;;;;;;8.53;5.70;;;9.70;90.10;;;;;;5001464;28;20421;-68
2023/10/25 05:22:23;;;;;;;10.07;6.10;;;9.70;90.10;;;;;;5001469;28;20484;-69
2023/10/25 05:24:49;;;;;;;8.23;5.27;;;9.70;90.00;;;;;;5004642;28;20430;-68
2023/10/25 05:27:15;;;;;;;9.80;5.40;;;9.60;90.00;;;;;;5003265;28;20519;-67
2023/10/25 05:29:42;;;;;;;10.30;6.10;;;9.60;90.00;;;;;;5003049;28;20560;-68
2023/10/25 05:32:13;;;;;;;7.13;4.90;;;9.60;89.90;;;;;;5002707;28;20408;-68
2023/10/25 05:34:39;;;;;;;7.90;5.00;;;9.50;89.90;;;;;;5002545;28;20424;-67
2023/10/25 05:37:05;;;;;;;6.90;5.00;;;9.60;90.00;;;;;;5003188;28;20456;-68
2023/10/25 05:39:31;;;;;;;9.03;5.60;;;9.60;90.10;;;;;;5000925;28;20177;-66
2023/10/25 05:42:02;;;;;;;11.57;5.20;;;9.60;90.00;;;;;;5001623;28;20480;-67
2023/10/25 05:44:28;;;;;;;9.10;5.20;;;9.60;90.00;;;;;;5002391;28;20209;-66
2023/10/25 05:46:54;;;;;;;8.10;5.30;;;9.60;90.00;;;;;;5011825;28;20495;-67
2023/10/25 05:49:20;;;;;;;7.83;4.90;;;9.60;90.00;;;;;;5004222;28;20181;-67
2023/10/25 05:51:45;;;;;;;8.50;4.70;;;9.60;90.10;;;;;;5001826;28;20193;-67
2023/10/25 05:54:12;;;;;;;12.00;6.20;;;9.60;90.00;;;;;;5005394;28;20471;-65
2023/10/25 05:56:37;;;;;;;8.43;5.50;;;9.60;90.00;;;;;;4999085;28;20308;-67
2023/10/25 05:59:03;;;;;;;10.20;5.50;;;9.60;89.90;;;;;;5001846;28;20521;-66
2023/10/25 06:01:48;;;;;;;9.13;4.57;;;9.60;89.90;;;;;;4998971;28;20216;-67
2023/10/25 06:04:14;;;;;;;10.77;6.10;;;9.60;89.90;;;;;;4997674;28;20440;-67
2023/10/25 06:06:44;;;;;;;8.17;5.57;;;9.60;90.00;;;;;;5000339;28;20568;-67
2023/10/25 06:09:11;;;;;;;8.23;5.47;;;9.60;89.90;;;;;;5000281;28;20431;-66
2023/10/25 06:11:40;;;;;;;10.90;6.43;;;9.60;89.90;;;;;;5003347;28;20405;-68
2023/10/25 06:14:08;;;;;;;7.40;5.17;;;9.70;89.90;;;;;;5009099;28;20786;-65
2023/10/25 06:16:34;;;;;;;9.13;5.90;;;9.70;89.70;;;;;;5006323;28;20488;-66
2023/10/25 06:19:00;;;;;;;9.30;5.63;;;9.60;89.70;;;;;;5002122;28;20456;-66
2023/10/25 06:21:26;;;;;;;14.20;6.10;;;9.70;89.70;;;;;;5002924;28;20511;-65
2023/10/25 06:23:52;;;;;;;9.17;6.07;;;9.70;89.60;;;;;;5003314;28;20462;-66
2023/10/25 06:26:18;;;;;;;8.40;5.50;;;9.60;89.50;;;;;;4999123;28;20248;-66
2023/10/25 06:28:44;;;;;;;6.60;4.80;;;9.70;89.50;;;;;;4999918;28;20201;-68
2023/10/25 06:31:11;;;;;;;8.77;5.80;;;9.80;89.50;;;;;;5011368;28;20405;-67
2023/10/25 06:33:37;;;;;;;8.30;5.70;;;9.90;89.30;;;;;;5005584;28;20428;-68
2023/10/25 06:36:03;;;;;;;9.47;5.17;;;9.90;89.20;;;;;;5004625;28;20976;-67
2023/10/25 06:38:29;;;;;;;8.63;5.57;;;10.00;88.90;;;;;;5002631;28;20690;-67
2023/10/25 06:40:55;;;;;;;11.10;5.90;;;10.00;88.30;;;;;;5006721;28;20452;-66
2023/10/25 06:43:21;;;;;;;8.77;5.57;;;10.00;88.10;;;;;;4998056;28;20343;-66
2023/10/25 06:45:47;;;;;;;7.87;5.50;;;10.00;87.70;;;;;;4998081;28;20540;-66
2023/10/25 06:48:13;;;;;;;9.77;5.53;;;10.00;87.80;;;;;;5004618;28;20498;-68
2023/10/25 06:50:38;;;;;;;7.70;5.10;;;10.00;87.70;;;;;;5004709;28;20414;-67
2023/10/25 06:53:04;;;;;;;11.10;5.40;;;10.10;87.60;;;;;;4997294;28;20277;-67
2023/10/25 06:55:30;;;;;;;10.37;6.90;;;10.10;87.60;;;;;;5002758;28;20469;-65
2023/10/25 06:57:56;;;;;;;8.10;5.30;;;10.20;87.70;;;;;;5002073;28;20422;-66
2023/10/25 07:00:22;;;;;;;10.60;6.33;;;10.30;87.80;;;;;;5000476;28;20484;-67
2023/10/25 07:02:52;;;;;;;11.67;6.47;;;10.40;87.70;;;;;;5001163;28;20435;-67
2023/10/25 07:05:21;;;;;;;9.70;6.07;;;10.50;87.70;;;;;;5003026;28;21379;-65
2023/10/25 07:07:51;;;;;;;10.63;6.37;;;10.60;87.60;;;;;;5003214;28;20936;-64
2023/10/25 07:10:18;;;;;;;11.77;6.83;;;10.80;87.40;;;;;;5003251;28;20542;-66
2023/10/25 07:12:45;;;;;;;12.50;6.97;;;10.80;87.30;;;;;;5011579;28;20433;-67
2023/10/25 07:15:11;;;;;;;17.73;8.33;;;10.80;86.80;;;;;;5003187;28;20429;-66
2023/10/25 07:17:37;;;;;;;9.73;5.93;;;10.90;86.60;;;;;;5009179;28;20514;-67
2023/10/25 07:20:05;;;;;;;8.30;4.97;;;10.90;86.30;;;;;;5006520;28;20517;-68
2023/10/25 07:22:30;;;;;;;8.63;5.30;;;11.00;86.20;;;;;;5021864;28;21071;-67
2023/10/25 07:24:56;;;;;;;7.73;5.40;;;11.10;86.00;;;;;;5002972;28;20918;-67
2023/10/25 07:27:22;;;;;;;6.73;4.60;;;11.10;85.70;;;;;;5005978;28;20331;-68
2023/10/25 07:29:48;;;;;;;8.33;4.80;;;11.20;85.70;;;;;;4998339;28;20795;-68
2023/10/25 07:32:14;;;;;;;6.80;4.47;;;11.30;85.50;;;;;;5007477;28;20182;-68
2023/10/25 07:34:40;;;;;;;7.17;4.03;;;11.40;85.50;;;;;;4998022;28;20487;-66
2023/10/25 07:37:06;;;;;;;8.83;4.83;;;11.50;85.00;;;;;;5008048;28;20241;-67
2023/10/25 07:39:32;;;;;;;7.70;4.70;;;11.60;84.70;;;;;;4998434;28;20931;-66
2023/10/25 07:41:57;;;;;;;6.13;4.87;;;11.70;84.30;;;;;;5005407;28;20217;-67
2023/10/25 07:44:23;;;;;;;7.17;4.40;;;11.80;84.00;;;;;;5005421;28;20443;-66
2023/10/25 07:46:48;;;;;;;6.23;4.20;;;11.70;83.80;;;;;;5005188;28;20218;-68
2023/10/25 07:49:14;;;;;;;6.53;4.67;;;11.70;83.80;;;;;;5005446;28;20642;-69
2023/10/25 07:51:40;;;;;;;6.90;4.80;;;11.80;84.00;;;;;;5003344;28;20721;-67
2023/10/25 07:54:05;;;;;;;6.80;4.60;;;11.80;84.10;;;;;;5003067;28;20217;-67
2023/10/25 07:56:31;;;;;;;7.90;5.07;;;11.80;84.10;;;;;;5005914;28;20214;-65
2023/10/25 07:58:58;;;;;;;6.60;4.70;;;11.80;84.00;;;;;;5010643;28;20226;-67
2023/10/25 08:01:23;;;;;;;5.23;4.13;;;11.80;84.10;;;;;;5007034;28;20218;-65
2023/10/25 08:03:49;;;;;;;6.73;4.57;;;11.80;84.10;;;;;;5006719;28;20432;-65
2023/10/25 08:06:15;;;;;;;7.17;4.60;;;11.90;84.30;;;;;;5004908;28;20225;-64
2023/10/25 08:08:41;;;;;;;8.07;4.60;;;12.00;84.30;;;;;;5005093;28;20678;-67
2023/10/25 08:11:07;;;;;;;5.00;4.07;;;12.10;84.10;;;;;;5003130;28;20186;-68
2023/10/25 08:13:34;;;;;;;7.00;4.33;;;12.20;83.70;;;;;;5003206;28;20261;-67
2023/10/25 08:16:02;;;;;;;6.10;4.43;;;12.20;83.30;;;;;;5005689;28;20460;-66
2023/10/25 08:18:29;;;;;;;6.30;4.10;;;12.30;83.40;;;;;;5003907;28;20417;-67
2023/10/25 08:20:56;;;;;;;12.53;4.73;;;12.30;83.40;;;;;;4997737;28;20785;-68
2023/10/25 08:23:21;;;;;;;6.80;4.40;;;12.30;83.30;;;;;;4999345;28;20436;-68
2023/10/25 08:25:47;;;;;;;8.30;4.67;;;12.40;83.10;;;;;;5000270;28;20466;-67
2023/10/25 08:28:13;;;;;;;6.63;3.80;;;12.50;83.10;;;;;;5004145;28;20216;-66
2023/10/25 08:30:39;;;;;;;5.80;4.40;;;12.70;83.10;;;;;;4997884;28;20251;-66
2023/10/25 08:33:04;;;;;;;7.87;4.80;;;12.90;82.70;;;;;;5006818;28;20469;-68
2023/10/25 08:35:30;;;;;;;6.13;3.90;;;13.00;82.10;;;;;;4998920;28;20213;-67
2023/10/25 08:37:55;;;;;;;6.40;4.40;;;13.10;81.90;;;;;;5007167;28;20277;-65
2023/10/25 08:40:23;;;;;;;5.83;4.33;;;13.10;81.50;;;;;;5002225;28;20687;-67
2023/10/25 08:42:50;;;;;;;5.80;4.00;;;13.20;81.50;;;;;;5003099;28;20217;-68
2023/10/25 08:45:16;;;;;;;5.67;4.27;;;13.20;81.50;;;;;;5002705;28;21017;-69
2023/10/25 08:47:42;;;;;;;6.83;4.30;;;13.30;81.40;;;;;;5011366;28;20485;-68
2023/10/25 08:50:08;;;;;;;7.70;4.23;;;13.30;81.40;;;;;;5000157;28;20428;-66
2023/10/25 08:52:37;;;;;;;6.40;4.37;;;13.30;81.20;;;;;;5001779;28;20428;-67
2023/10/25 08:55:06;;;;;;;6.20;4.57;;;13.20;81.20;;;;;;5000488;28;20422;-68
2023/10/25 08:57:32;;;;;;;5.97;4.47;;;13.30;81.40;;;;;;4998042;28;20434;-66
2023/10/25 08:59:58;;;;;;;5.20;3.50;;;13.30;81.10;;;;;;5003275;28;20418;-66
2023/10/25 09:02:23;;;;;;;7.67;4.27;;;13.20;81.10;;;;;;5004432;28;20297;-65
2023/10/25 09:05:06;;;;;;;5.90;4.30;;;13.30;81.40;;;;;;5004320;28;20666;-68
2023/10/25 09:07:35;;;;;;;8.77;4.30;;;13.30;81.40;;;;;;5006073;28;20721;-68
2023/10/25 09:10:03;;;;;;;7.27;4.63;;;13.30;81.20;;;;;;5003491;28;20472;-67
2023/10/25 09:12:29;;;;;;;5.80;4.40;;;13.30;81.50;;;;;;4998651;28;20418;-68
2023/10/25 09:14:55;;;;;;;10.73;4.53;;;13.20;81.70;;;;;;5005602;28;20448;-67
2023/10/25 09:17:20;;;;;;;5.77;4.27;;;13.20;81.80;;;;;;5001875;28;20458;-68
2023/10/25 09:19:48;;;;;;;6.33;4.50;;;13.30;82.10;;;;;;5005499;28;20214;-66
2023/10/25 09:22:22;;;;;;;7.30;5.20;;;13.30;82.20;;;;;;4998609;28;20211;-67
2023/10/25 09:24:49;;;;;;;6.17;4.30;;;13.30;82.40;;;;;;5000605;28;20430;-66
2023/10/25 09:27:14;;;;;;;6.67;4.83;;;13.30;82.20;;;;;;5002343;28;20844;-68
2023/10/25 09:29:40;;;;;;;9.93;4.87;;;13.30;82.40;;;;;;5001031;28;20517;-66
2023/10/25 09:32:09;;;;;;;8.17;4.67;;;13.30;82.70;;;;;;5000313;28;20305;-67
2023/10/25 09:34:36;;;;;;;5.80;4.40;;;13.30;82.70;;;;;;5002980;28;20719;-64
2023/10/25 09:37:04;;;;;;;9.17;4.73;;;13.30;82.70;;;;;;5007682;28;20468;-67
2023/10/25 09:39:32;;;;;;;6.93;4.80;;;13.30;82.70;;;;;;5006495;28;20480;-67
2023/10/25 09:42:02;;;;;;;5.70;4.23;;;13.30;82.80;;;;;;4999997;28;20488;-67
2023/10/25 09:44:34;;;;;;;10.93;4.00;;;13.30;83.10;;;;;;5003094;28;20788;-68
2023/10/25 09:47:00;;;;;;;7.50;4.53;;;13.30;83.10;;;;;;5004576;28;20542;-67
2023/10/25 09:49:29;;;;;;;6.27;4.50;;;13.40;83.10;;;;;;5001548;28;20421;-69
2023/10/25 09:52:07;;;;;;;5.53;4.57;;;13.50;83.00;;;;;;4999788;28;20743;-67
2023/10/25 09:54:35;;;;;;;7.80;4.50;;;13.50;83.00;;;;;;5004579;28;20417;-67
2023/10/25 09:57:02;;;;;;;6.70;4.23;;;13.60;83.00;;;;;;4997156;28;20461;-67
2023/10/25 09:59:31;;;;;;;5.40;3.93;;;13.60;82.40;;;;;;5009622;28;20425;-68
2023/10/25 10:01:58;;;;;;;7.17;4.20;;;13.60;82.40;;;;;;5007260;28;20996;-67
2023/10/25 10:04:42;;;;;;;7.07;4.07;;;13.70;82.40;;;;;;4994873;28;20422;-69
2023/10/25 10:07:22;;;;;;;10.03;3.60;;;13.70;82.20;;;;;;5003212;28;21049;-66
2023/10/25 10:10:21;;;;;;;5.27;4.27;;;13.70;82.40;;;;;;5008392;28;20417;-67
2023/10/25 10:12:47;;;;;;;5.97;4.13;;;13.80;82.40;;;;;;4997980;28;20422;-66
2023/10/25 10:15:14;;;;;;;4.70;4.00;;;13.90;82.20;;;;;;5002508;28;20470;-66
2023/10/25 10:17:44;;;;;;;12.83;7.00;;;13.90;81.70;;;;;;5000154;28;20422;-66
2023/10/25 10:20:35;;;;;;;17.37;8.87;;;13.90;81.90;;;;;;5002470;28;20452;-67
2023/10/25 10:23:03;;;;;;;7.60;4.47;;;14.00;82.10;;;;;;4997121;28;20469;-66
2023/10/25 10:25:46;;;;;;;7.03;4.53;;;14.10;81.90;;;;;;5008905;28;20460;-67
2023/10/25 10:28:13;;;;;;;6.10;4.17;;;14.30;81.70;;;;;;5004717;28;20432;-68
2023/10/25 10:30:39;;;;;;;6.90;4.30;;;14.30;81.50;;;;;;5008457;28;20509;-68
2023/10/25 10:33:09;;;;;;;7.23;4.37;;;14.40;81.10;;;;;;5005474;28;20429;-68
2023/10/25 10:35:39;;;;;;;5.00;3.63;;;14.50;80.80;;;;;;5009063;28;20465;-68
2023/10/25 10:38:06;;;;;;;5.90;3.80;;;14.50;80.60;;;;;;5006108;28;20440;-68
2023/10/25 10:40:31;;;;;;;7.80;4.20;;;14.60;80.80;;;;;;5007387;28;20520;-66
2023/10/25 10:42:57;;;;;;;5.40;3.70;;;14.60;80.60;;;;;;5012067;28;21658;-67
2023/10/25 10:45:23;;;;;;;4.20;3.37;;;14.70;80.50;;;;;;5007585;28;20652;-66
2023/10/25 10:47:55;;;;;;;5.60;3.17;;;14.90;80.20;;;;;;5004980;28;20666;-67
2023/10/25 10:50:22;;;;;;;4.07;2.80;;;14.90;79.70;;;;;;5006824;28;20481;-68
2023/10/25 10:52:50;;;;;;;5.10;3.10;;;15.00;79.50;;;;;;5011163;28;20424;-67
2023/10/25 10:55:20;;;;;;;4.83;2.87;;;15.10;79.20;;;;;;5000964;28;20936;-67
2023/10/25 10:57:47;;;;;;;3.53;2.70;;;15.20;79.20;;;;;;4999299;28;20492;-68
2023/10/25 11:00:16;;;;;;;5.23;3.10;;;15.30;78.70;;;;;;5000664;28;20418;-67
2023/10/25 11:02:51;;;;;;;3.73;2.73;;;15.40;78.90;;;;;;5005621;28;20470;-67
2023/10/25 11:05:22;;;;;;;7.93;3.10;;;15.50;77.60;;;;;;5000845;28;20434;-66
2023/10/25 11:07:49;;;;;;;4.07;3.00;;;15.50;77.60;;;;;;5006417;28;20419;-68
2023/10/25 11:10:15;;;;;;;4.27;2.80;;;15.40;77.70;;;;;;4998780;28;20475;-66
2023/10/25 11:12:41;;;;;;;3.93;2.53;;;15.40;78.00;;;;;;5000335;28;20478;-69
2023/10/25 11:15:07;;;;;;;3.90;2.30;;;15.40;78.00;;;;;;5003940;28;20429;-67
2023/10/25 11:17:34;;;;;;;4.07;2.87;;;15.40;78.00;;;;;;5013846;28;20201;-67
2023/10/25 11:20:00;;;;;;;5.50;3.10;;;15.40;78.00;;;;;;5009374;28;20463;-66
2023/10/25 11:22:26;;;;;;;5.83;2.90;;;15.30;78.40;;;;;;5009343;28;20515;-67
2023/10/25 11:24:53;;;;;;;4.50;2.40;;;15.40;78.30;;;;;;5000937;28;20454;-68
2023/10/25 11:27:19;;;;;;;4.37;2.70;;;15.60;78.30;;;;;;5007563;28;20217;-68
2023/10/25 11:29:45;;;;;;;2.37;2.10;;;15.70;78.10;;;;;;5014924;28;20948;-67
2023/10/25 11:32:12;;;;;;;3.03;2.40;;;16.00;77.60;;;;;;5010749;28;20494;-68
2023/10/25 11:34:44;;;;;;;4.13;2.20;;;16.30;76.70;;;;;;5009875;28;20893;-67
2023/10/25 11:37:10;;;;;;;2.57;1.97;;;16.70;75.80;;;;;;5012027;28;20452;-65
2023/10/25 11:39:55;;;;;;;3.63;2.20;;;17.10;74.60;;;;;;5008401;28;20433;-67
2023/10/25 11:42:21;;;;;;;16.07;3.20;;;17.50;72.70;;;;;;5000940;28;20532;-68
2023/10/25 11:44:46;;;;;;;4.03;2.50;;;17.60;72.00;;;;;;4999641;28;20426;-66
2023/10/25 11:47:20;;;;;;;3.10;2.03;;;17.60;71.40;;;;;;4995471;28;20203;-68
2023/10/25 11:49:57;;;;;;;3.00;2.03;;;17.60;71.70;;;;;;5005215;28;20418;-63
2023/10/25 11:52:32;;;;;;;3.83;2.23;;;17.50;70.70;;;;;;5001596;28;20426;-67
2023/10/25 11:54:59;;;;;;;5.03;2.00;;;17.40;71.40;;;;;;5003366;28;20429;-67
2023/10/25 11:57:28;;;;;;;5.10;2.10;;;17.60;71.40;;;;;;4997866;28;20440;-67
2023/10/25 11:59:54;;;;;;;2.63;1.53;;;17.80;71.10;;;;;;5002860;28;20537;-66
2023/10/25 12:02:21;;;;;;;6.77;2.40;;;18.20;68.20;;;;;;5001683;28;20580;-67
2023/10/25 12:04:48;;;;;;;2.10;1.53;;;18.30;68.30;;;;;;5001588;28;21167;-65
2023/10/25 12:07:14;;;;;;;5.43;1.77;;;18.50;68.50;;;;;;5001816;28;20477;-67
2023/10/25 12:09:41;;;;;;;4.83;1.63;;;18.40;67.60;;;;;;5002095;28;20924;-67
2023/10/25 12:12:07;;;;;;;5.50;1.47;;;18.20;68.20;;;;;;5008458;28;20193;-67
2023/10/25 12:14:32;;;;;;;2.10;1.70;;;17.80;68.50;;;;;;5001257;28;20422;-66
2023/10/25 12:16:58;;;;;;;1.90;1.63;;;17.60;68.80;;;;;;5001471;28;20563;-67
2023/10/25 12:19:24;;;;;;;2.10;1.60;;;17.50;69.20;;;;;;5008414;28;20679;-67
2023/10/25 12:21:54;;;;;;;3.80;1.73;;;17.50;69.50;;;;;;5012304;28;20218;-66
2023/10/25 12:24:21;;;;;;;3.03;1.50;;;17.30;69.50;;;;;;5004518;28;21008;-68
2023/10/25 12:26:47;;;;;;;3.83;1.60;;;17.20;69.80;;;;;;5004728;28;21922;-68
2023/10/25 12:29:12;;;;;;;2.47;1.60;;;17.10;69.50;;;;;;5008455;28;20432;-67
2023/10/25 12:31:38;;;;;;;2.90;1.33;;;17.10;70.20;;;;;;5004509;28;20618;-67
2023/10/25 12:34:04;;;;;;;2.93;1.23;;;17.00;69.50;;;;;;5005043;28;20216;-68
2023/10/25 12:36:29;;;;;;;2.77;1.50;;;17.00;69.70;;;;;;5002770;28;20866;-69
2023/10/25 12:38:55;;;;;;;1.43;1.13;;;17.10;69.70;;;;;;4996349;28;20670;-68
2023/10/25 12:41:20;;;;;;;1.47;1.13;;;17.20;69.10;;;;;;5002380;28;20186;-67
2023/10/25 12:43:47;;;;;;;2.17;1.30;;;17.40;69.10;;;;;;4996458;28;20198;-66
2023/10/25 12:46:13;;;;;;;2.03;1.33;;;17.40;68.20;;;;;;5006304;28;20229;-67